Northern & Central Napa County

33 Stations

15 Minute Data | America/Los_Angeles
as of 9/4/26 2:56 PM PDT
Station Date Time Temp (°F) RH (%) Dew Pt (°F) Wind Spd (mph) Wind Dir (°) Wind Gust (mph) Latest Rain (In) Daily Rain (In) Daily Max Temp (°F) Daily Min Temp (°F)
Tenma (North Calistoga) 9/4/26 1445 78.5   10.1 - - - - - 0.00 0.00 79.1   8.6 52.0   3.7
Calistoga-Solari 9/4/26 1445 75.4   7.6 33   37 44.3   13.4 4.5   2.0 W | 260 12.5   1.5 0.00 0.00 76.1   7.4 48.7   6.7
Calistoga-North 9/4/26 1445 77.8   9.6 37   37 49.4   10.0 - - - 0.00 0.00 79.2   10.7 50.3   6.6
Twomey Calistoga 9/4/26 1445 80.2   9.8 34   30 49.1   8.6 2.5   1.0 WNW | 292 7.2   1.8 0.00 0.00 80.5   6.3 48.9   6.6
Paloma 9/4/26 1445 80.0   10.9 35   35 50.2   9.0 4.2   0.1 NNW | 336 9.6   0.7 0.00 0.00 80.0   10.5 51.2   6.6
Calistoga (Ranch 78) 9/4/26 1445 77.9   8.6 36   31 48.7   9.2 3.4   0.2 SW | 222 8.8   1.0 0.00 0.00 77.9   6.3 52.2   3.7
Diamond Mtn (Schramsberg) 9/4/26 1445 74.2   6.2 37   30 46.5   10.2 - - - 0.00 0.01 75.1   5.5 51.2   4.1
Diamond Mtn (McEachran) 9/4/26 1445 72.9   4.7 39   26 46.4   9.7 - - - - - 73.6   4.5 51.7   4.6
Deer Park 9/4/26 1445 73.7   7.6 38   30 46.8   8.8 3.3   1.5 WSW | 251 7.8   4.8 0.00 0.00 76.6   9.9 54.3   2.5
St. Helena-North 9/4/26 1445 77.6   5.6 32   26 45.2   11.2 2.6   0.0 W | 280 7.5   0.9 0.00 0.00 78.1   5.6 51.7   4.3
St. Helena (NVV Office) 9/4/26 1445 77.9   5.2 - - 1.9   0.3 S | 172 6.4   3.8 0.00 0.00 79.3   6.1 49.0   8.5
Tiara Fria (East St. Helena) 9/4/26 1445 75.6   6.0 37   29 47.6   10.2 2.0   4.0 NE | 52 5.4   6.2 0.00 0.00 76.0   5.6 49.2   7.6
Prisoner Winery 9/4/26 1445 78.0   6.0 35   26 48.1   9.9 1.6   2.6 SSW | 198 5.8   5.4 0.00 0.00 79.9   6.5 48.2   4.9
Rutherford Hill Estate 9/4/26 1445 79.4   10.6 35   33 49.6   8.5 3.0   0.4 WSW | 257 7.9   1.7 0.00 0.01 80.3   10.8 51.5   4.9
Rutherford-North (Mee Ln) 9/4/26 1445 77.6   6.1 36   27 48.7   9.8 2.3   3.3 SSE | 160 7.0   5.3 0.00 0.00 78.8   6.4 44.0   6.9
Rutherford (STS) 9/4/26 1445 79.1   5.2 40   24 52.5   8.3 3.2   2.2 ENE | 67 9.0   2.3 0.00 0.01 82.3   7.1 45.6   5.6
Silver Oak OV 9/4/26 1445 77.2   6.7 37   30 48.9   10.0 2.2   3.0 SE | 141 5.3   4.8 0.00 0.01 77.9   7.0 50.2   0.9
Oakville-NE (Ranch 88) 9/4/26 1445 78.8   7.9 33   29 47.1   9.9 2.2   1.8 SW | 225 10.5   1.5 0.00 0.01 79.3   8.0 48.9   1.0
Crossroads Ranch 9/4/26 1445 76.8   6.5 41   30 51.2   9.3 2.4   2.1 SSW | 209 8.3   0.4 0.00 0.00 76.8   6.3 51.4   0.6
Oakville 9/4/26 1445 75.6   4.9 38   26 48.0   9.9 2.0   2.1 ESE | 103 5.9   3.6 0.00 0.00 77.4   6.4 51.3   1.0
To Kalon Remote (TKKE) 9/4/26 1445 77.6   4.6 - - - - - - - 78.5   4.9 47.6   7.3
To Kalon 9/4/26 1445 77.4   6.1 34   32 46.8   12.4 3.2   0.7 WSW | 242 9.8   0.4 0.00 0.00 78.0   5.9 48.6   7.9
To Kalon Remote (TKN5) 9/4/26 1445 77.9   5.7 - - - - - - - 79.0   6.1 48.0   8.8
Jump Rock 9/4/26 1445 70.4   8.9 50   44 50.9   9.0 3.7   1.4 W | 274 9.9   3.6 0.00 0.01 70.9   8.7 46.0   1.9
State Lane Ranch 9/4/26 1445 76.2   8.5 45   38 53.0   9.0 3.2   1.9 W | 268 8.9   1.0 0.00 0.01 78.2   9.3 52.5   2.1
Yountville (Ranch 67) 9/4/26 1445 75.5   8.1 37   36 47.4   11.1 2.4   4.3 SSE | 156 6.4   5.6 0.00 0.01 76.3   8.3 52.7   1.9
Borreo (Soda Canyon) 9/4/26 1415 71.3   7.6 45   44 49.1   11.5 3.5   0.1 SSW | 194 10.0   1.7 0.00 0.00 72.6   8.7 50.0   3.6
Wappo Hill Floor 9/4/26 1445 76.3   9.3 37   45 48.3   13.0 4.0   0.7 S | 190 7.5   2.5 0.00 0.01 78.9   9.8 52.1   3.6
Wappo Hill 9/4/26 1445 76.2   9.4 36   45 47.7   13.3 2.5   5.0 NW | 309 7.5   6.0 0.00 0.00 76.8   7.8 54.3   2.0
Stags Leap Dist (Chimney Rock) 9/4/26 1445 76.1   9.7 45   42 53.2   9.3 2.0   2.5 SE | 138 7.7   1.4 0.00 0.00 76.5   7.8 55.6   0.4
Stags Leap Dist (Silverado Vineyards) 9/4/26 1445 76.5   9.2 38   36 48.6   9.8 1.8   4.9 SSE | 160 5.6   5.7 0.00 0.00 77.3   9.4 53.2   2.1
Yountville-SE (Ranch 85) 9/4/26 1445 76.2   9.2 40   44 50.3   11.8 3.6   2.3 SE | 124 8.2   3.9 0.00 0.01 76.9   8.3 54.8   0.2
Yountville-South (Ranch 87) 9/4/26 1445 76.7   9.5 39   45 49.9   12.3 1.9   2.2 NNE | 20 5.9   2.8 0.00 0.00 77.3   7.9 54.1   0.2
Max     80.2 50 53.2 4.5 - 12.5 0.00 0.01 82.3 55.6
Avg     76.6 38 48.7 2.8 - 7.9 0.00 - - -
Min     70.4 32 44.3 1.6 - 5.3 0.00 0.00 70.9 44.0